createdAt,value
2022-07-31T00:01:58.209Z,6.38
2022-07-31T00:04:44.077Z,8.45
2022-07-31T00:07:30.023Z,6.78
2022-07-31T00:10:16.363Z,9.05
2022-07-31T00:13:02.415Z,8.30
2022-07-31T00:15:48.223Z,7.88
2022-07-31T00:18:35.268Z,8.35
2022-07-31T00:21:21.473Z,8.40
2022-07-31T00:24:07.595Z,11.15
2022-07-31T00:26:53.424Z,6.47
2022-07-31T00:29:40.325Z,5.95
2022-07-31T00:32:26.763Z,10.45
2022-07-31T00:35:14.208Z,6.72
2022-07-31T00:38:25.589Z,7.07
2022-07-31T00:41:07.130Z,6.35
2022-07-31T00:43:53.441Z,9.80
2022-07-31T00:46:40.644Z,6.80
2022-07-31T00:49:26.350Z,5.78
2022-07-31T00:52:23.842Z,6.22
2022-07-31T00:55:10.237Z,6.72
2022-07-31T00:57:56.194Z,7.20
2022-07-31T01:00:42.115Z,6.35
2022-07-31T01:03:28.421Z,7.60
2022-07-31T01:06:15.090Z,7.18
2022-07-31T01:09:00.902Z,9.18
2022-07-31T01:12:14.237Z,9.63
2022-07-31T01:15:04.001Z,6.50
2022-07-31T01:17:51.528Z,7.28
2022-07-31T01:20:38.048Z,7.10
2022-07-31T01:24:12.384Z,6.88
2022-07-31T01:27:49.460Z,6.03
2022-07-31T01:31:25.458Z,9.07
2022-07-31T01:34:16.905Z,6.20
2022-07-31T01:37:22.843Z,7.47
2022-07-31T01:40:16.611Z,7.20
2022-07-31T01:43:06.609Z,9.07
2022-07-31T01:45:55.949Z,7.43
2022-07-31T01:48:44.141Z,7.00
2022-07-31T01:51:31.866Z,7.03
2022-07-31T01:54:19.108Z,8.48
2022-07-31T01:57:06.340Z,6.47
2022-07-31T02:00:33.609Z,5.82
2022-07-31T02:03:15.473Z,9.30
2022-07-31T02:06:04.145Z,8.45
2022-07-31T02:08:51.654Z,9.38
2022-07-31T02:11:45.779Z,7.32
2022-07-31T02:14:41.444Z,7.18
2022-07-31T02:17:28.864Z,6.65
2022-07-31T02:20:34.018Z,9.32
2022-07-31T02:23:20.301Z,7.40
2022-07-31T02:26:07.293Z,6.25
2022-07-31T02:28:53.662Z,6.15
2022-07-31T02:31:39.818Z,6.80
2022-07-31T02:34:29.101Z,9.73
2022-07-31T02:37:16.475Z,8.50
2022-07-31T02:40:03.642Z,9.60
2022-07-31T02:42:52.081Z,8.07
2022-07-31T02:45:38.540Z,6.90
2022-07-31T02:48:25.378Z,6.78
2022-07-31T02:51:13.266Z,7.90
2022-07-31T02:54:01.143Z,6.43
2022-07-31T02:56:48.628Z,7.20
2022-07-31T02:59:38.480Z,8.20
2022-07-31T03:02:37.040Z,8.15
2022-07-31T03:05:24.984Z,6.13
2022-07-31T03:08:10.951Z,7.13
2022-07-31T03:10:59.749Z,8.45
2022-07-31T03:13:45.910Z,5.65
2022-07-31T03:16:32.277Z,8.23
2022-07-31T03:19:21.774Z,7.63
2022-07-31T03:22:13.643Z,8.02
2022-07-31T03:25:03.568Z,5.90
2022-07-31T03:27:52.715Z,8.57
2022-07-31T03:30:43.600Z,6.38
2022-07-31T03:33:29.951Z,8.02
2022-07-31T03:36:16.409Z,10.80
2022-07-31T03:39:02.311Z,7.80
2022-07-31T03:41:57.006Z,9.07
2022-07-31T03:44:43.791Z,7.47
2022-07-31T03:47:30.505Z,9.70
2022-07-31T03:50:17.324Z,6.63
2022-07-31T03:53:05.346Z,7.70
2022-07-31T03:55:54.570Z,13.20
2022-07-31T03:58:40.934Z,7.57
2022-07-31T04:01:27.734Z,8.70
2022-07-31T04:04:39.072Z,10.15
2022-07-31T04:07:25.440Z,11.70
2022-07-31T04:10:11.642Z,6.93
2022-07-31T04:12:57.642Z,9.65
2022-07-31T04:15:44.144Z,9.82
2022-07-31T04:18:30.396Z,7.85
2022-07-31T04:21:16.338Z,7.30
2022-07-31T04:24:02.212Z,12.75
2022-07-31T04:27:00.311Z,7.10
2022-07-31T04:29:53.562Z,10.32
2022-07-31T04:32:40.708Z,8.15
2022-07-31T04:35:47.468Z,12.02
2022-07-31T04:38:33.257Z,9.75
2022-07-31T04:41:19.191Z,8.52
2022-07-31T04:44:05.173Z,8.88
2022-07-31T04:47:11.100Z,9.68
2022-07-31T04:50:02.118Z,10.55
2022-07-31T04:52:50.075Z,7.72
2022-07-31T04:55:36.377Z,10.60
2022-07-31T04:58:22.256Z,6.82
2022-07-31T05:01:08.107Z,6.80
2022-07-31T05:03:55.813Z,6.40
2022-07-31T05:06:45.865Z,10.20
2022-07-31T05:09:33.764Z,8.40
2022-07-31T05:12:23.582Z,7.57
2022-07-31T05:15:09.934Z,7.85
2022-07-31T05:17:55.853Z,8.10
2022-07-31T05:21:15.723Z,7.65
2022-07-31T05:24:33.173Z,9.32
2022-07-31T05:27:32.226Z,9.38
2022-07-31T05:30:30.557Z,7.40
2022-07-31T05:33:17.210Z,11.15
2022-07-31T05:36:04.351Z,9.38
2022-07-31T05:38:51.147Z,8.60
2022-07-31T05:42:13.009Z,9.05
2022-07-31T05:45:17.725Z,7.28
2022-07-31T05:48:04.283Z,6.82
2022-07-31T05:50:51.220Z,8.57
2022-07-31T05:53:37.724Z,8.07
2022-07-31T05:56:49.482Z,8.27
2022-07-31T05:59:39.557Z,8.68
2022-07-31T06:02:25.428Z,10.00
2022-07-31T06:05:30.135Z,8.38
2022-07-31T06:08:16.769Z,11.52
2022-07-31T06:11:06.114Z,9.50
2022-07-31T06:13:51.890Z,11.25
2022-07-31T06:16:43.145Z,9.80
2022-07-31T06:19:29.158Z,14.15
2022-07-31T06:22:15.101Z,31.65
2022-07-31T06:25:01.311Z,12.63
2022-07-31T06:27:51.979Z,20.83
2022-07-31T06:30:45.156Z,21.00
2022-07-31T06:33:37.908Z,13.82
2022-07-31T06:36:24.545Z,14.93
2022-07-31T06:39:18.067Z,10.32
2022-07-31T06:42:24.305Z,9.55
2022-07-31T06:45:49.871Z,10.55
2022-07-31T06:48:59.641Z,15.98
2022-07-31T06:51:46.241Z,12.05
2022-07-31T06:54:32.009Z,14.13
2022-07-31T06:57:18.255Z,10.48
2022-07-31T07:00:15.233Z,10.95
2022-07-31T07:03:08.009Z,9.60
2022-07-31T07:05:53.932Z,10.52
2022-07-31T07:08:39.964Z,13.35
2022-07-31T07:11:26.473Z,10.15
2022-07-31T07:31:23.604Z,12.02
2022-07-31T07:34:10.166Z,11.95
2022-07-31T07:36:56.294Z,14.20
2022-07-31T07:42:35.501Z,12.05
2022-07-31T07:45:22.062Z,13.80
2022-07-31T07:48:08.088Z,16.27
2022-07-31T07:51:14.047Z,10.80
2022-07-31T07:54:10.801Z,15.32
2022-07-31T07:57:16.802Z,9.98
2022-07-31T08:00:21.786Z,13.68
2022-07-31T08:03:50.806Z,12.48
2022-07-31T08:06:23.766Z,9.70
2022-07-31T08:09:09.886Z,9.77
2022-07-31T08:12:14.656Z,9.85
2022-07-31T08:15:19.665Z,9.40
2022-07-31T08:18:40.666Z,9.00
2022-07-31T08:21:26.853Z,9.57
2022-07-31T08:24:16.796Z,9.50
2022-07-31T08:27:21.748Z,10.00
2022-07-31T08:30:08.850Z,10.52
2022-07-31T08:32:54.841Z,8.07
2022-07-31T08:35:51.576Z,7.75
2022-07-31T08:38:39.505Z,8.55
2022-07-31T08:41:44.424Z,14.32
2022-07-31T08:44:31.006Z,7.60
2022-07-31T08:47:18.392Z,7.18
2022-07-31T08:50:05.696Z,6.22
2022-07-31T08:52:54.869Z,6.55
2022-07-31T08:55:56.836Z,11.63
2022-07-31T08:58:47.578Z,5.72
2022-07-31T09:01:35.161Z,6.32
2022-07-31T09:04:21.446Z,5.75
2022-07-31T09:07:11.100Z,7.68
2022-07-31T09:09:56.997Z,6.05
2022-07-31T09:12:44.197Z,6.47
2022-07-31T09:15:31.507Z,7.18
2022-07-31T09:18:22.307Z,4.35
2022-07-31T09:21:16.869Z,4.90
2022-07-31T09:24:03.127Z,4.32
2022-07-31T09:26:53.943Z,5.55
2022-07-31T09:29:45.514Z,4.82
2022-07-31T09:32:45.960Z,4.65
2022-07-31T09:35:50.088Z,5.28
2022-07-31T09:38:39.306Z,4.63
2022-07-31T09:41:57.983Z,4.35
2022-07-31T09:45:18.843Z,4.07
2022-07-31T09:48:08.252Z,5.95
2022-07-31T09:50:58.574Z,4.78
2022-07-31T09:53:53.572Z,5.53
2022-07-31T09:56:58.863Z,4.28
2022-07-31T09:59:50.185Z,3.53
2022-07-31T10:02:39.721Z,3.78
2022-07-31T10:05:27.773Z,6.38
2022-07-31T10:08:17.467Z,6.10
2022-07-31T10:11:25.053Z,3.30
2022-07-31T10:14:44.195Z,3.40
2022-07-31T10:17:36.087Z,3.28
2022-07-31T10:20:36.264Z,5.32
2022-07-31T10:23:23.964Z,2.78
2022-07-31T10:26:12.112Z,3.78
2022-07-31T10:28:58.613Z,4.88
2022-07-31T10:31:46.372Z,3.90
2022-07-31T10:34:34.801Z,4.57
2022-07-31T10:37:48.666Z,4.93
2022-07-31T10:40:54.641Z,6.32
2022-07-31T10:43:47.039Z,13.77
2022-07-31T10:50:06.377Z,2.97
2022-07-31T10:53:20.332Z,5.05
2022-07-31T10:56:42.532Z,2.45
2022-07-31T10:59:44.887Z,9.00
2022-07-31T11:03:14.411Z,10.50
2022-07-31T11:06:21.624Z,2.97
2022-07-31T11:09:22.218Z,13.48
2022-07-31T11:12:27.442Z,6.50
2022-07-31T11:15:39.469Z,4.30
2022-07-31T11:18:46.539Z,4.47
2022-07-31T11:21:41.806Z,5.40
2022-07-31T11:24:27.808Z,9.75
2022-07-31T11:27:13.686Z,5.80
2022-07-31T11:30:13.211Z,13.30
2022-07-31T11:32:59.688Z,3.10
2022-07-31T11:35:45.766Z,8.68
2022-07-31T11:38:31.829Z,6.47
2022-07-31T11:41:20.246Z,7.43
2022-07-31T11:44:08.575Z,3.95
2022-07-31T11:46:54.855Z,3.80
2022-07-31T11:49:48.744Z,8.13
2022-07-31T11:52:37.242Z,2.58
2022-07-31T11:55:23.566Z,2.40
2022-07-31T11:58:11.375Z,3.10
2022-07-31T12:00:59.685Z,3.10
2022-07-31T12:03:47.102Z,5.47
2022-07-31T12:06:36.413Z,7.85
2022-07-31T12:10:01.471Z,6.63
2022-07-31T12:12:28.760Z,10.95
2022-07-31T12:15:20.128Z,5.22
2022-07-31T12:18:06.739Z,10.20
2022-07-31T12:20:59.081Z,2.53
2022-07-31T12:23:50.548Z,3.88
2022-07-31T12:26:36.458Z,5.43
2022-07-31T12:29:34.501Z,8.02
2022-07-31T12:32:26.001Z,3.83
2022-07-31T12:35:12.365Z,4.77
2022-07-31T12:37:58.655Z,4.10
2022-07-31T12:40:48.277Z,5.18
2022-07-31T12:43:34.378Z,7.32
2022-07-31T12:46:21.780Z,11.23
2022-07-31T12:49:08.519Z,4.05
2022-07-31T12:51:54.598Z,3.42
2022-07-31T12:54:40.756Z,5.05
2022-07-31T12:57:26.679Z,3.00
2022-07-31T13:00:12.945Z,3.03
2022-07-31T13:02:59.732Z,2.58
2022-07-31T13:05:49.197Z,2.40
2022-07-31T13:08:38.100Z,3.03
2022-07-31T13:11:25.806Z,2.55
2022-07-31T13:14:12.087Z,4.32
2022-07-31T13:16:57.952Z,5.60
2022-07-31T13:19:43.709Z,2.50
2022-07-31T13:22:29.604Z,2.90
2022-07-31T13:25:15.424Z,3.50
2022-07-31T13:28:01.206Z,2.72
2022-07-31T13:30:47.117Z,2.17
2022-07-31T13:33:32.989Z,2.80
2022-07-31T13:36:18.985Z,3.17
2022-07-31T13:39:04.930Z,2.03
2022-07-31T13:41:50.785Z,2.55
2022-07-31T13:44:36.797Z,3.72
2022-07-31T13:47:22.919Z,2.42
2022-07-31T13:50:08.930Z,2.20
2022-07-31T13:52:55.063Z,3.20
2022-07-31T13:55:41.143Z,4.72
2022-07-31T13:58:27.335Z,2.78
2022-07-31T14:01:13.433Z,2.08
2022-07-31T14:03:59.359Z,3.35
2022-07-31T14:06:47.458Z,3.20
2022-07-31T14:09:34.790Z,2.40
2022-07-31T14:12:20.618Z,2.42
2022-07-31T14:15:07.883Z,3.85
2022-07-31T14:17:53.943Z,3.00
2022-07-31T14:20:39.767Z,2.33
2022-07-31T14:23:34.199Z,3.10
2022-07-31T14:26:22.363Z,3.75
2022-07-31T14:29:08.524Z,2.83
2022-07-31T14:31:54.453Z,2.15
2022-07-31T14:34:40.239Z,2.17
2022-07-31T14:37:26.195Z,4.07
2022-07-31T14:40:12.652Z,2.63
2022-07-31T14:42:58.701Z,2.67
2022-07-31T14:45:51.865Z,1.88
2022-07-31T14:48:38.252Z,2.72
2022-07-31T14:51:24.169Z,2.00
2022-07-31T14:54:10.231Z,2.63
2022-07-31T14:57:01.448Z,2.65
2022-07-31T14:59:48.174Z,2.45
2022-07-31T15:02:34.352Z,2.50
2022-07-31T15:06:41.017Z,2.70
2022-07-31T15:08:26.465Z,2.17
2022-07-31T15:11:12.468Z,2.20
2022-07-31T15:13:58.336Z,2.13
2022-07-31T15:16:44.600Z,2.95
2022-07-31T15:19:35.472Z,2.75
2022-07-31T15:22:21.437Z,2.55
2022-07-31T15:25:08.704Z,2.28
2022-07-31T15:27:54.483Z,5.25
2022-07-31T15:30:40.517Z,4.35
2022-07-31T15:33:26.455Z,2.25
2022-07-31T15:36:15.145Z,2.17
2022-07-31T15:39:01.358Z,6.63
2022-07-31T15:41:47.260Z,2.35
2022-07-31T15:44:33.144Z,2.70
2022-07-31T15:47:19.136Z,5.38
2022-07-31T15:50:06.299Z,6.53
2022-07-31T15:52:53.515Z,4.15
2022-07-31T15:55:39.907Z,3.78
2022-07-31T15:58:26.070Z,2.95
2022-07-31T16:01:14.507Z,3.58
2022-07-31T16:04:00.856Z,4.10
2022-07-31T16:06:50.482Z,4.25
2022-07-31T16:10:03.489Z,5.13
2022-07-31T16:12:46.103Z,2.80
2022-07-31T16:15:32.474Z,4.85
2022-07-31T16:18:18.918Z,3.55
2022-07-31T16:21:05.213Z,4.13
2022-07-31T16:23:51.314Z,6.68
2022-07-31T16:26:39.969Z,5.45
2022-07-31T16:30:00.945Z,3.92
2022-07-31T16:32:32.778Z,4.45
2022-07-31T16:35:19.008Z,4.70
2022-07-31T16:38:05.087Z,4.47
2022-07-31T16:40:53.523Z,4.13
2022-07-31T16:43:47.785Z,4.07
2022-07-31T16:46:37.099Z,4.78
2022-07-31T16:49:24.032Z,4.78
2022-07-31T16:52:22.620Z,4.40
2022-07-31T16:55:09.040Z,4.43
2022-07-31T16:57:55.410Z,6.80
2022-07-31T17:00:41.900Z,4.28
2022-07-31T17:04:00.550Z,7.07
2022-07-31T17:06:37.995Z,8.88
2022-07-31T17:09:24.418Z,5.38
2022-07-31T17:12:11.722Z,6.28
2022-07-31T17:14:57.800Z,6.80
2022-07-31T17:17:44.700Z,6.22
2022-07-31T17:20:30.923Z,7.10
2022-07-31T17:23:18.202Z,7.47
2022-07-31T17:26:23.919Z,5.05
2022-07-31T17:29:09.773Z,4.38
2022-07-31T17:31:55.859Z,5.13
2022-07-31T17:34:45.911Z,4.10
2022-07-31T17:37:32.041Z,6.10
2022-07-31T17:40:42.116Z,4.82
2022-07-31T17:43:27.717Z,12.15
2022-07-31T17:46:21.790Z,14.35
2022-07-31T17:49:19.533Z,10.25
2022-07-31T17:52:07.237Z,7.20
2022-07-31T17:54:54.737Z,5.43
2022-07-31T17:57:40.985Z,3.08
2022-07-31T18:00:31.083Z,4.32
2022-07-31T18:03:18.585Z,5.35
2022-07-31T18:06:05.180Z,3.05
2022-07-31T18:08:51.343Z,4.80
2022-07-31T18:11:37.708Z,3.97
2022-07-31T18:14:25.002Z,2.22
2022-07-31T18:17:11.266Z,2.75
2022-07-31T18:19:57.870Z,6.35
2022-07-31T18:22:49.801Z,2.60
2022-07-31T18:28:21.848Z,6.07
2022-07-31T18:31:30.759Z,3.35
2022-07-31T18:34:14.370Z,3.97
2022-07-31T18:37:00.548Z,6.13
2022-07-31T18:39:48.725Z,4.65
2022-07-31T18:42:35.443Z,5.90
2022-07-31T18:45:23.605Z,3.33
2022-07-31T18:48:09.732Z,4.40
2022-07-31T18:50:59.131Z,4.70
2022-07-31T18:53:50.404Z,2.92
2022-07-31T18:56:36.702Z,4.93
2022-07-31T18:59:22.756Z,3.25
2022-07-31T19:02:11.490Z,4.18
2022-07-31T19:04:58.654Z,3.95
2022-07-31T19:07:44.761Z,4.20
2022-07-31T19:10:34.736Z,6.28
2022-07-31T19:13:21.720Z,7.15
2022-07-31T19:16:08.484Z,6.47
2022-07-31T19:18:55.901Z,4.53
2022-07-31T19:21:43.055Z,5.18
2022-07-31T19:24:29.481Z,7.90
2022-07-31T19:27:15.905Z,5.78
2022-07-31T19:30:02.126Z,7.10
2022-07-31T19:32:48.196Z,5.45
2022-07-31T19:35:34.616Z,6.50
2022-07-31T19:38:44.175Z,7.45
2022-07-31T19:41:30.359Z,9.80
2022-07-31T19:44:16.443Z,8.15
2022-07-31T19:47:02.396Z,5.63
2022-07-31T19:49:48.480Z,6.00
2022-07-31T19:52:34.645Z,8.88
2022-07-31T19:55:20.601Z,6.90
2022-07-31T19:58:06.610Z,5.68
2022-07-31T20:00:52.629Z,7.72
2022-07-31T20:03:38.844Z,7.93
2022-07-31T20:06:28.080Z,4.28
2022-07-31T20:09:15.437Z,8.27
2022-07-31T20:12:02.034Z,3.83
2022-07-31T20:14:49.745Z,5.70
2022-07-31T20:17:36.473Z,7.53
2022-07-31T20:20:22.266Z,5.25
2022-07-31T20:23:08.425Z,7.65
2022-07-31T20:25:57.791Z,6.13
2022-07-31T20:28:45.219Z,4.00
2022-07-31T20:31:31.531Z,5.82
2022-07-31T20:34:17.921Z,3.85
2022-07-31T20:37:04.584Z,4.68
2022-07-31T20:39:50.548Z,4.13
2022-07-31T20:42:36.353Z,5.20
2022-07-31T20:45:23.378Z,4.75
2022-07-31T20:48:09.193Z,5.50
2022-07-31T20:50:55.135Z,5.82
2022-07-31T20:53:41.005Z,5.72
2022-07-31T20:56:27.226Z,5.00
2022-07-31T20:59:14.482Z,3.50
2022-07-31T21:02:03.539Z,7.45
2022-07-31T21:04:49.778Z,3.25
2022-07-31T21:07:36.079Z,5.32
2022-07-31T21:10:24.026Z,5.75
2022-07-31T21:13:10.162Z,6.30
2022-07-31T21:15:56.672Z,5.80
2022-07-31T21:18:43.557Z,6.40
2022-07-31T21:21:29.984Z,6.63
2022-07-31T21:24:16.413Z,7.15
2022-07-31T21:27:03.276Z,4.97
2022-07-31T21:29:51.896Z,3.95
2022-07-31T21:32:41.570Z,7.75
2022-07-31T21:35:37.294Z,3.53
2022-07-31T21:38:23.914Z,9.95
2022-07-31T21:41:10.516Z,5.05
2022-07-31T21:43:58.790Z,6.22
2022-07-31T21:46:51.830Z,9.18
2022-07-31T21:49:38.832Z,8.20
2022-07-31T21:52:27.294Z,8.65
2022-07-31T21:55:13.650Z,12.30
2022-07-31T21:58:00.158Z,7.30
2022-07-31T22:00:46.513Z,7.40
2022-07-31T22:03:32.993Z,4.60
2022-07-31T22:06:37.459Z,8.10
2022-07-31T22:09:26.589Z,6.90
2022-07-31T22:12:12.788Z,8.38
2022-07-31T22:14:58.653Z,16.20
2022-07-31T22:17:46.781Z,22.92
2022-07-31T22:20:33.169Z,31.83
2022-07-31T22:23:19.640Z,30.67
2022-07-31T22:26:05.800Z,18.30
2022-07-31T22:28:52.294Z,22.88
2022-07-31T22:31:38.731Z,20.00
2022-07-31T22:34:37.530Z,22.95
2022-07-31T22:37:27.716Z,22.38
2022-07-31T22:40:16.101Z,27.83
2022-07-31T22:43:03.509Z,31.38
2022-07-31T22:45:49.884Z,22.17
2022-07-31T22:48:36.530Z,14.18
2022-07-31T22:51:22.517Z,11.85
2022-07-31T22:54:08.689Z,7.25
2022-07-31T22:56:54.594Z,6.15
2022-07-31T22:59:40.627Z,8.45
2022-07-31T23:02:27.464Z,5.38
2022-07-31T23:05:13.605Z,6.38
2022-07-31T23:07:59.739Z,3.88
2022-07-31T23:10:46.022Z,4.80
2022-07-31T23:13:32.194Z,7.40
2022-07-31T23:16:18.414Z,5.55
2022-07-31T23:19:04.605Z,6.95
2022-07-31T23:21:50.490Z,8.95
2022-07-31T23:24:36.850Z,7.78
2022-07-31T23:27:22.943Z,9.43
2022-07-31T23:30:09.421Z,8.75
2022-07-31T23:32:55.474Z,9.77
2022-07-31T23:35:41.642Z,6.43
2022-07-31T23:38:27.605Z,7.97
2022-07-31T23:41:14.357Z,7.40
2022-07-31T23:44:00.455Z,8.70
2022-07-31T23:46:46.275Z,6.18
2022-07-31T23:49:35.741Z,8.38
2022-07-31T23:52:21.516Z,6.05
2022-07-31T23:55:07.703Z,5.75
2022-07-31T23:57:53.989Z,5.25
